createdAt,value
2017-05-22T00:00:59.929Z,9.28
2017-05-22T00:02:22.081Z,9.13
2017-05-22T00:03:44.273Z,9.15
2017-05-22T00:05:06.721Z,9.08
2017-05-22T00:06:28.537Z,9.05
2017-05-22T00:07:50.792Z,9.05
2017-05-22T00:09:12.644Z,9.08
2017-05-22T00:10:34.894Z,8.91
2017-05-22T00:11:56.819Z,9.01
2017-05-22T00:13:18.349Z,8.91
2017-05-22T00:14:40.652Z,8.92
2017-05-22T00:16:03.418Z,8.91
2017-05-22T00:17:25.577Z,8.98
2017-05-22T00:18:47.102Z,8.96
2017-05-22T00:20:08.054Z,8.86
2017-05-22T00:21:30.023Z,8.81
2017-05-22T00:22:52.509Z,8.8
2017-05-22T00:24:14.323Z,8.81
2017-05-22T00:25:36.501Z,8.83
2017-05-22T00:26:59.327Z,8.86
2017-05-22T00:28:21.800Z,8.74
2017-05-22T00:29:43.616Z,8.8
2017-05-22T00:31:05.143Z,8.8
2017-05-22T00:32:27.397Z,8.76
2017-05-22T00:33:48.953Z,8.65
2017-05-22T00:35:10.811Z,8.62
2017-05-22T00:36:32.949Z,8.56
2017-05-22T00:37:55.142Z,8.56
2017-05-22T00:39:17.292Z,8.55
2017-05-22T00:40:38.860Z,8.43
2017-05-22T00:42:00.389Z,8.47
2017-05-22T00:43:22.508Z,8.41
2017-05-22T00:44:44.024Z,8.37
2017-05-22T00:46:06.264Z,8.3
2017-05-22T00:47:28.472Z,8.3
2017-05-22T00:48:50.660Z,8.33
2017-05-22T00:50:12.482Z,8.29
2017-05-22T00:51:34.302Z,8.22
2017-05-22T00:52:56.761Z,8.26
2017-05-22T00:54:19.535Z,8.25
2017-05-22T00:55:41.061Z,8.29
2017-05-22T00:57:02.669Z,8.25
2017-05-22T00:58:24.591Z,8.3
2017-05-22T00:59:46.778Z,8.29
2017-05-22T01:01:08.928Z,8.29
2017-05-22T01:02:31.119Z,8.12
2017-05-22T01:03:53.002Z,8.2
2017-05-22T01:05:15.601Z,8.18
2017-05-22T01:06:37.521Z,8.22
2017-05-22T01:07:59.350Z,8.18
2017-05-22T01:09:20.859Z,8.02
2017-05-22T01:10:43.437Z,8.07
2017-05-22T01:12:05.262Z,7.92
2017-05-22T01:13:27.395Z,8.01
2017-05-22T01:14:49.536Z,8.01
2017-05-22T01:16:11.718Z,7.97
2017-05-22T01:17:33.222Z,7.9
2017-05-22T01:18:55.683Z,7.87
2017-05-22T01:20:17.839Z,7.9
2017-05-22T01:21:40.015Z,7.9
2017-05-22T01:23:01.220Z,7.92
2017-05-22T01:24:23.116Z,7.89
2017-05-22T01:25:44.321Z,7.85
2017-05-22T01:27:06.110Z,7.83
2017-05-22T01:28:27.622Z,7.83
2017-05-22T01:29:49.523Z,7.87
2017-05-22T01:31:12.010Z,7.9
2017-05-22T01:32:34.829Z,7.9
2017-05-22T01:33:56.660Z,7.98
2017-05-22T01:35:18.542Z,7.93
2017-05-22T01:36:40.718Z,7.95
2017-05-22T01:38:03.164Z,7.86
2017-05-22T01:39:25.301Z,7.92
2017-05-22T01:40:47.546Z,7.92
2017-05-22T01:42:09.370Z,7.89
2017-05-22T01:43:31.505Z,7.95
2017-05-22T01:44:53.640Z,7.86
2017-05-22T01:46:15.163Z,7.9
2017-05-22T01:47:37.622Z,7.93
2017-05-22T01:48:59.736Z,7.97
2017-05-22T01:50:21.239Z,7.9
2017-05-22T01:51:43.067Z,7.89
2017-05-22T01:53:04.261Z,7.87
2017-05-22T01:54:26.411Z,7.83
2017-05-22T01:55:48.578Z,7.83
2017-05-22T01:57:10.087Z,7.92
2017-05-22T01:58:31.638Z,7.9
2017-05-22T01:59:54.411Z,7.87
2017-05-22T02:01:15.630Z,7.85
2017-05-22T02:02:36.831Z,7.79
2017-05-22T02:03:58.970Z,7.71
2017-05-22T02:05:20.511Z,7.79
2017-05-22T02:06:42.110Z,7.77
2017-05-22T02:08:04.052Z,7.8
2017-05-22T02:09:26.278Z,7.77
2017-05-22T02:10:48.248Z,7.74
2017-05-22T02:12:10.012Z,7.64
2017-05-22T02:13:32.462Z,7.67
2017-05-22T02:14:54.419Z,7.55
2017-05-22T02:16:16.230Z,7.6
2017-05-22T02:17:37.446Z,7.43
2017-05-22T02:18:59.081Z,7.46
2017-05-22T02:20:21.530Z,7.48
2017-05-22T02:21:43.723Z,7.4
2017-05-22T02:23:05.343Z,7.39
2017-05-22T02:24:26.921Z,7.37
2017-05-22T02:25:48.540Z,7.31
2017-05-22T02:27:10.750Z,7.32
2017-05-22T02:28:32.985Z,7.27
2017-05-22T02:29:54.507Z,7.24
2017-05-22T02:31:16.643Z,7.3
2017-05-22T02:32:39.210Z,7.17
2017-05-22T02:34:00.732Z,7.17
2017-05-22T02:35:22.269Z,7.21
2017-05-22T02:36:44.508Z,7.17
2017-05-22T02:38:06.740Z,7.03
2017-05-22T02:39:29.019Z,7.1
2017-05-22T02:40:50.601Z,7.03
2017-05-22T02:42:12.883Z,7.03
2017-05-22T02:43:34.953Z,6.98
2017-05-22T02:44:56.791Z,6.99
2017-05-22T02:46:18.929Z,6.92
2017-05-22T02:47:40.446Z,6.92
2017-05-22T02:49:03.046Z,6.87
2017-05-22T02:50:24.607Z,6.91
2017-05-22T02:51:46.791Z,6.91
2017-05-22T02:53:09.296Z,6.88
2017-05-22T02:54:31.191Z,6.88
2017-05-22T02:55:53.367Z,6.8
2017-05-22T02:57:14.948Z,6.88
2017-05-22T02:58:37.100Z,6.89
2017-05-22T02:59:58.853Z,6.89
2017-05-22T03:01:20.749Z,6.88
2017-05-22T03:02:42.289Z,6.8
2017-05-22T03:04:04.223Z,6.81
2017-05-22T03:05:26.360Z,6.85
2017-05-22T03:06:48.493Z,6.88
2017-05-22T03:08:11.131Z,6.91
2017-05-22T03:09:33.000Z,6.89
2017-05-22T03:10:55.141Z,6.88
2017-05-22T03:12:17.711Z,6.88
2017-05-22T03:13:39.535Z,6.87
2017-05-22T03:15:01.690Z,6.91
2017-05-22T03:16:23.811Z,6.88
2017-05-22T03:17:45.323Z,6.91
2017-05-22T03:19:07.160Z,6.98
2017-05-22T03:20:28.432Z,7.1
2017-05-22T03:21:50.290Z,7.09
2017-05-22T03:23:11.800Z,7.07
2017-05-22T03:24:33.996Z,7.12
2017-05-22T03:25:55.515Z,7.15
2017-05-22T03:27:17.687Z,7.12
2017-05-22T03:28:39.909Z,7.28
2017-05-22T03:30:02.049Z,7.31
2017-05-22T03:31:24.200Z,7.24
2017-05-22T03:32:46.033Z,7.27
2017-05-22T03:34:07.871Z,7.32
2017-05-22T03:35:30.126Z,7.35
2017-05-22T03:36:52.277Z,7.45
2017-05-22T03:38:14.417Z,7.42
2017-05-22T03:39:36.556Z,7.46
2017-05-22T03:40:58.080Z,7.6
2017-05-22T03:42:19.606Z,7.55
2017-05-22T03:43:41.107Z,7.57
2017-05-22T03:45:03.368Z,7.58
2017-05-22T03:46:24.882Z,7.69
2017-05-22T03:47:46.531Z,7.67
2017-05-22T03:49:08.980Z,7.8
2017-05-22T03:50:30.700Z,7.77
2017-05-22T03:51:52.855Z,7.89
2017-05-22T03:53:15.312Z,7.92
2017-05-22T03:54:37.812Z,8
2017-05-22T03:55:59.999Z,8.07
2017-05-22T03:57:21.825Z,8.18
2017-05-22T03:58:43.716Z,8.18
2017-05-22T04:00:05.317Z,8.18
2017-05-22T04:01:27.840Z,8.29
2017-05-22T04:02:49.679Z,8.47
2017-05-22T04:04:11.510Z,8.52
2017-05-22T04:05:33.378Z,8.56
2017-05-22T04:06:55.209Z,8.63
2017-05-22T04:08:17.362Z,8.77
2017-05-22T04:09:39.530Z,8.71
2017-05-22T04:11:02.001Z,8.77
2017-05-22T04:12:24.129Z,8.77
2017-05-22T04:13:46.600Z,8.92
2017-05-22T04:15:08.419Z,8.98
2017-05-22T04:16:30.811Z,8.99
2017-05-22T04:17:52.641Z,9.1
2017-05-22T04:19:13.891Z,9.18
2017-05-22T04:20:36.027Z,9.24
2017-05-22T04:21:58.214Z,9.31
2017-05-22T04:23:20.360Z,9.4
2017-05-22T04:24:42.190Z,9.43
2017-05-22T04:26:03.700Z,9.57
2017-05-22T04:27:26.660Z,9.6
2017-05-22T04:28:47.916Z,9.6
2017-05-22T04:30:09.436Z,9.68
2017-05-22T04:31:31.570Z,9.71
2017-05-22T04:32:53.769Z,9.78
2017-05-22T04:34:15.927Z,9.81
2017-05-22T04:35:38.150Z,9.79
2017-05-22T04:36:59.671Z,9.86
2017-05-22T04:38:22.490Z,9.86
2017-05-22T04:39:44.668Z,9.96
2017-05-22T04:41:06.513Z,9.96
2017-05-22T04:42:28.727Z,10.02
2017-05-22T04:43:51.238Z,10.07
2017-05-22T04:45:13.080Z,10.18
2017-05-22T04:46:34.910Z,10.18
2017-05-22T04:47:56.747Z,10.25
2017-05-22T04:49:19.570Z,10.41
2017-05-22T04:50:42.083Z,10.44
2017-05-22T04:52:04.544Z,10.56
2017-05-22T04:53:26.490Z,10.73
2017-05-22T04:54:48.775Z,10.91
2017-05-22T04:56:10.039Z,11.19
2017-05-22T04:57:31.576Z,11.99
2017-05-22T04:58:53.505Z,13.62
2017-05-22T05:00:16.090Z,15.57
2017-05-22T05:01:38.230Z,17.49
2017-05-22T05:02:59.767Z,19.14
2017-05-22T05:04:21.618Z,20.54
2017-05-22T05:05:44.281Z,21.79
2017-05-22T05:07:06.760Z,22.94
2017-05-22T05:08:28.391Z,23.4
2017-05-22T05:09:49.925Z,23.94
2017-05-22T05:11:12.420Z,24.24
2017-05-22T05:12:34.429Z,24.73
2017-05-22T05:13:57.032Z,25.21
2017-05-22T05:15:18.909Z,26.06
2017-05-22T05:16:41.720Z,25.21
2017-05-22T05:18:03.238Z,25.3
2017-05-22T05:19:25.900Z,24.73
2017-05-22T05:20:48.151Z,24.81
2017-05-22T05:22:10.490Z,25.97
2017-05-22T05:23:32.642Z,27.27
2017-05-22T05:24:54.631Z,28.18
2017-05-22T05:26:16.292Z,28.36
2017-05-22T05:27:38.549Z,28.81
2017-05-22T05:29:00.129Z,29.57
2017-05-22T05:30:22.302Z,30.26
2017-05-22T05:31:44.910Z,29.16
2017-05-22T05:33:07.761Z,29.61
2017-05-22T05:34:29.953Z,30.46
2017-05-22T05:35:52.167Z,31.16
2017-05-22T05:37:13.751Z,31.35
2017-05-22T05:38:35.912Z,31.68
2017-05-22T05:39:58.091Z,31.5
2017-05-22T05:41:20.570Z,31.32
2017-05-22T05:42:42.121Z,31.43
2017-05-22T05:44:04.221Z,31.29
2017-05-22T05:45:26.389Z,30.62
2017-05-22T05:46:48.240Z,31.35
2017-05-22T05:48:09.770Z,32.22
2017-05-22T05:49:31.968Z,32.55
2017-05-22T05:50:53.812Z,32.41
2017-05-22T05:52:15.122Z,32.32
2017-05-22T05:53:37.301Z,32.45
2017-05-22T05:54:59.390Z,32.28
2017-05-22T05:56:21.560Z,32.43
2017-05-22T05:57:43.739Z,32.85
2017-05-22T05:59:06.239Z,33.31
2017-05-22T06:00:28.490Z,33.72
2017-05-22T06:01:50.351Z,33.65
2017-05-22T06:03:12.568Z,33.81
2017-05-22T06:04:34.509Z,33.84
2017-05-22T06:05:56.660Z,33.68
2017-05-22T06:07:18.185Z,33.51
2017-05-22T06:08:40.049Z,34.02
2017-05-22T06:10:01.900Z,33.56
2017-05-22T06:11:23.740Z,33.51
2017-05-22T06:12:45.602Z,33.19
2017-05-22T06:14:07.769Z,33.12
2017-05-22T06:15:29.919Z,32.51
2017-05-22T06:16:51.740Z,33.34
2017-05-22T06:18:13.591Z,33.79
2017-05-22T06:19:36.098Z,33.42
2017-05-22T06:20:57.951Z,33.95
2017-05-22T06:22:19.429Z,34.19
2017-05-22T06:23:41.919Z,33.87
2017-05-22T06:25:04.411Z,33.82
2017-05-22T06:26:25.950Z,33.73
2017-05-22T06:27:48.158Z,33.95
2017-05-22T06:29:10.334Z,34.22
2017-05-22T06:30:32.549Z,35
2017-05-22T06:31:54.397Z,35.68
2017-05-22T06:33:16.602Z,35.77
2017-05-22T06:34:39.083Z,36.25
2017-05-22T06:36:01.256Z,36.23
2017-05-22T06:37:22.842Z,36.27
2017-05-22T06:38:45.180Z,35.6
2017-05-22T06:40:07.679Z,34.89
2017-05-22T06:41:30.174Z,35.65
2017-05-22T06:42:52.354Z,36
2017-05-22T06:44:14.570Z,36.64
2017-05-22T06:45:36.777Z,37.27
2017-05-22T06:46:58.979Z,37.74
2017-05-22T06:48:20.821Z,37.91
2017-05-22T06:49:42.919Z,37.91
2017-05-22T06:51:04.819Z,38.35
2017-05-22T06:52:26.968Z,38.72
2017-05-22T06:53:48.231Z,38.75
2017-05-22T06:55:10.016Z,39.16
2017-05-22T06:56:32.493Z,39.09
2017-05-22T06:57:54.689Z,38.35
2017-05-22T06:59:16.557Z,36.5
2017-05-22T07:00:38.030Z,35.75
2017-05-22T07:01:59.869Z,35.7
2017-05-22T07:03:21.715Z,35.84
2017-05-22T07:04:42.940Z,36.05
2017-05-22T07:06:05.351Z,36.32
2017-05-22T07:07:27.856Z,35.66
2017-05-22T07:08:49.382Z,35.06
2017-05-22T07:10:11.308Z,34.8
2017-05-22T07:11:32.579Z,34.82
2017-05-22T07:12:53.909Z,34.88
2017-05-22T07:14:16.076Z,35.56
2017-05-22T07:15:37.990Z,35.41
2017-05-22T07:17:00.728Z,34.06
2017-05-22T07:18:22.928Z,34.42
2017-05-22T07:19:45.174Z,35.59
2017-05-22T07:21:07.400Z,36.07
2017-05-22T07:22:29.580Z,35.84
2017-05-22T07:23:51.891Z,35.06
2017-05-22T07:25:14.069Z,35.29
2017-05-22T07:26:35.960Z,35.84
2017-05-22T07:27:58.200Z,36.51
2017-05-22T07:29:20.367Z,36.28
2017-05-22T07:30:41.588Z,36
2017-05-22T07:32:03.757Z,36.07
2017-05-22T07:33:26.330Z,36.37
2017-05-22T07:34:47.940Z,36.34
2017-05-22T07:36:09.807Z,36.31
2017-05-22T07:37:31.359Z,36.28
2017-05-22T07:38:52.877Z,36.51
2017-05-22T07:40:14.739Z,36.2
2017-05-22T07:41:36.280Z,36.56
2017-05-22T07:42:58.890Z,35.99
2017-05-22T07:44:20.819Z,34.91
2017-05-22T07:45:42.686Z,33.94
2017-05-22T07:47:04.239Z,33.65
2017-05-22T07:48:26.099Z,33.29
2017-05-22T07:49:48.260Z,33.29
2017-05-22T07:51:09.829Z,34.31
2017-05-22T07:52:31.040Z,33.56
2017-05-22T07:53:53.225Z,33.28
2017-05-22T07:55:15.705Z,34.13
2017-05-22T07:56:37.589Z,34.88
2017-05-22T07:57:59.785Z,34.59
2017-05-22T07:59:21.630Z,34.34
2017-05-22T08:00:43.851Z,33.39
2017-05-22T08:02:05.809Z,32.82
2017-05-22T08:03:28.309Z,32.97
2017-05-22T08:04:49.855Z,33.19
2017-05-22T08:06:12.068Z,33.18
2017-05-22T08:07:33.924Z,32.72
2017-05-22T08:08:55.851Z,30.86
2017-05-22T08:10:18.019Z,29.09
2017-05-22T08:11:40.167Z,27.92
2017-05-22T08:13:02.349Z,26.8
2017-05-22T08:14:24.635Z,25.67
2017-05-22T08:15:46.810Z,25.18
2017-05-22T08:17:09.700Z,24.53
2017-05-22T08:18:30.711Z,24.03
2017-05-22T08:19:52.908Z,23.32
2017-05-22T08:21:15.080Z,23.31
2017-05-22T08:22:37.550Z,22.95
2017-05-22T08:23:59.409Z,22.92
2017-05-22T08:25:20.937Z,22.54
2017-05-22T08:26:43.417Z,22.31
2017-05-22T08:28:05.941Z,22.3
2017-05-22T08:29:27.804Z,22.47
2017-05-22T08:30:49.346Z,22.25
2017-05-22T08:32:11.537Z,22.21
2017-05-22T08:33:34.449Z,22.06
2017-05-22T08:34:56.926Z,22.14
2017-05-22T08:36:19.510Z,22.02
2017-05-22T08:37:42.001Z,22.17
2017-05-22T08:39:04.882Z,22.17
2017-05-22T08:40:26.796Z,22.24
2017-05-22T08:41:48.334Z,22.24
2017-05-22T08:43:10.506Z,22.49
2017-05-22T08:44:32.710Z,22.52
2017-05-22T08:45:54.606Z,22.64
2017-05-22T08:47:17.100Z,22.7
2017-05-22T08:48:38.946Z,22.8
2017-05-22T08:50:01.052Z,22.9
2017-05-22T08:51:22.968Z,22.91
2017-05-22T08:52:44.888Z,23
2017-05-22T08:54:06.807Z,22.92
2017-05-22T08:55:29.018Z,22.91
2017-05-22T08:56:50.556Z,22.98
2017-05-22T08:58:12.077Z,23.09
2017-05-22T08:59:33.992Z,23.27
2017-05-22T09:00:56.461Z,23.2
2017-05-22T09:02:19.028Z,23.22
2017-05-22T09:03:40.910Z,23.15
2017-05-22T09:05:03.083Z,23.25
2017-05-22T09:06:25.179Z,23.27
2017-05-22T09:07:47.437Z,23.4
2017-05-22T09:09:08.961Z,23.5
2017-05-22T09:10:30.499Z,23.5
2017-05-22T09:11:52.401Z,23.55
2017-05-22T09:13:14.899Z,23.65
2017-05-22T09:14:37.388Z,23.7
2017-05-22T09:15:58.900Z,23.54
2017-05-22T09:17:20.797Z,23.66
2017-05-22T09:18:42.331Z,23.54
2017-05-22T09:20:03.867Z,23.57
2017-05-22T09:21:26.059Z,23.73
2017-05-22T09:22:48.270Z,23.72
2017-05-22T09:24:10.119Z,23.65
2017-05-22T09:25:31.752Z,23.6
2017-05-22T09:26:53.931Z,23.66
2017-05-22T09:28:16.448Z,23.79
2017-05-22T09:29:38.316Z,23.51
2017-05-22T09:31:00.144Z,23.04
2017-05-22T09:32:22.302Z,22.75
2017-05-22T09:33:44.900Z,22.51
2017-05-22T09:35:07.378Z,22.49
2017-05-22T09:36:29.224Z,22.72
2017-05-22T09:37:51.070Z,22.95
2017-05-22T09:39:13.896Z,23.48
2017-05-22T09:40:35.851Z,23.76
2017-05-22T09:41:58.080Z,24.31
2017-05-22T09:43:19.652Z,24.58
2017-05-22T09:44:42.155Z,24.88
2017-05-22T09:46:04.520Z,25.05
2017-05-22T09:47:26.390Z,25.25
2017-05-22T09:48:48.456Z,25.57
2017-05-22T09:50:10.577Z,25.8
2017-05-22T09:51:32.448Z,25.99
2017-05-22T09:52:54.311Z,25.91
2017-05-22T09:54:16.477Z,25.69
2017-05-22T09:55:38.715Z,25.27
2017-05-22T09:56:59.904Z,25.09
2017-05-22T09:58:21.426Z,24.91
2017-05-22T09:59:43.997Z,24.96
2017-05-22T10:01:06.203Z,25.03
2017-05-22T10:02:28.050Z,24.87
2017-05-22T10:03:50.289Z,24.65
2017-05-22T10:05:11.855Z,24.58
2017-05-22T10:06:33.694Z,24.68
2017-05-22T10:07:55.544Z,24.67
2017-05-22T10:09:17.492Z,24.37
2017-05-22T10:10:39.648Z,24.24
2017-05-22T10:12:02.181Z,24.27
2017-05-22T10:13:24.023Z,24.05
2017-05-22T10:14:45.877Z,24.06
2017-05-22T10:16:08.362Z,23.8
2017-05-22T10:17:31.034Z,23.7
2017-05-22T10:18:53.534Z,23.61
2017-05-22T10:20:15.688Z,23.83
2017-05-22T10:21:38.192Z,23.94
2017-05-22T10:23:00.984Z,23.75
2017-05-22T10:24:22.949Z,23.91
2017-05-22T10:25:44.803Z,24.09
2017-05-22T10:27:06.657Z,24.35
2017-05-22T10:28:29.117Z,24.27
2017-05-22T10:29:51.003Z,24.31
2017-05-22T10:31:12.858Z,24.31
2017-05-22T10:32:34.506Z,24.15
2017-05-22T10:33:57.012Z,23.8
2017-05-22T10:35:18.550Z,23.79
2017-05-22T10:36:41.021Z,23.72
2017-05-22T10:38:03.188Z,23.75
2017-05-22T10:39:25.390Z,23.68
2017-05-22T10:40:47.600Z,23.76
2017-05-22T10:42:09.738Z,24.16
2017-05-22T10:43:31.699Z,24.28
2017-05-22T10:44:54.206Z,24.5
2017-05-22T10:46:15.727Z,24.57
2017-05-22T10:47:37.265Z,24.78
2017-05-22T10:48:58.917Z,25.06
2017-05-22T10:50:20.853Z,25.42
2017-05-22T10:51:42.591Z,25.61
2017-05-22T10:53:05.080Z,25.82
2017-05-22T10:54:27.023Z,25.95
2017-05-22T10:55:49.196Z,25.95
2017-05-22T10:57:10.848Z,25.92
2017-05-22T10:58:32.487Z,25.92
2017-05-22T10:59:54.228Z,25.77
2017-05-22T11:01:16.410Z,25.58
2017-05-22T11:02:37.969Z,25.54
2017-05-22T11:04:00.197Z,25.64
2017-05-22T11:05:22.675Z,25.54
2017-05-22T11:06:44.026Z,25.52
2017-05-22T11:08:06.227Z,25.1
2017-05-22T11:09:28.068Z,24.78
2017-05-22T11:10:49.607Z,24.83
2017-05-22T11:12:12.032Z,24.96
2017-05-22T11:13:34.038Z,24.8
2017-05-22T11:14:56.209Z,24.93
2017-05-22T11:16:18.394Z,24.91
2017-05-22T11:17:40.618Z,25.13
2017-05-22T11:19:01.841Z,25.25
2017-05-22T11:20:24.009Z,25.24
2017-05-22T11:21:45.539Z,25.1
2017-05-22T11:23:07.543Z,25.33
2017-05-22T11:24:29.391Z,25.36
2017-05-22T11:25:51.290Z,25.51
2017-05-22T11:27:13.471Z,25.55
2017-05-22T11:28:35.499Z,25.82
2017-05-22T11:29:57.768Z,26.02
2017-05-22T11:31:19.626Z,26.23
2017-05-22T11:32:41.796Z,26.47
2017-05-22T11:34:03.892Z,26.32
2017-05-22T11:35:25.750Z,25.99
2017-05-22T11:36:48.302Z,25.1
2017-05-22T11:38:09.853Z,24.52
2017-05-22T11:39:32.637Z,23.8
2017-05-22T11:40:54.237Z,23.88
2017-05-22T11:42:16.401Z,24.13
2017-05-22T11:43:38.609Z,24.05
2017-05-22T11:45:01.069Z,23.84
2017-05-22T11:46:23.567Z,23.57
2017-05-22T11:47:45.975Z,23.42
2017-05-22T11:49:07.577Z,23.48
2017-05-22T11:50:29.998Z,23.5
2017-05-22T11:51:52.530Z,23.31
2017-05-22T11:53:14.367Z,23.66
2017-05-22T11:54:36.869Z,24.05
2017-05-22T11:55:58.974Z,24.24
2017-05-22T11:57:21.468Z,24.69
2017-05-22T11:58:43.691Z,25.14
2017-05-22T12:00:05.870Z,25.3
2017-05-22T12:01:28.019Z,25.35
2017-05-22T12:02:49.859Z,25.32
2017-05-22T12:04:12.358Z,25.21
2017-05-22T12:05:33.918Z,25.33
2017-05-22T12:06:56.329Z,25.45
2017-05-22T12:08:18.486Z,25.52
2017-05-22T12:09:40.119Z,25.51
2017-05-22T12:11:02.028Z,25.17
2017-05-22T12:12:24.543Z,24.8
2017-05-22T12:13:46.728Z,24.57
2017-05-22T12:15:08.623Z,24.62
2017-05-22T12:16:30.288Z,24.9
2017-05-22T12:17:52.826Z,25.23
2017-05-22T12:19:14.648Z,25.27
2017-05-22T12:20:36.805Z,25.38
2017-05-22T12:21:59.036Z,25.57
2017-05-22T12:23:21.558Z,25.7
2017-05-22T12:24:43.402Z,25.64
2017-05-22T12:26:05.884Z,25.73
2017-05-22T12:27:27.731Z,25.88
2017-05-22T12:28:49.878Z,25.97
2017-05-22T12:30:12.379Z,25.98
2017-05-22T12:31:34.573Z,26.13
2017-05-22T12:32:56.489Z,26.32
2017-05-22T12:34:19.264Z,26.69
2017-05-22T12:35:41.526Z,26.99
2017-05-22T12:37:03.101Z,27.31
2017-05-22T12:38:24.949Z,27.34
2017-05-22T12:39:47.049Z,27.41
2017-05-22T12:41:08.928Z,27.39
2017-05-22T12:42:31.097Z,27.36
2017-05-22T12:43:53.018Z,27.63
2017-05-22T12:45:15.234Z,27.31
2017-05-22T12:46:37.799Z,26.8
2017-05-22T12:47:59.628Z,26.32
2017-05-22T12:49:21.488Z,26.25
2017-05-22T12:50:43.904Z,26.21
2017-05-22T12:52:05.754Z,26.23
2017-05-22T12:53:28.236Z,26.25
2017-05-22T12:54:50.735Z,26.33
2017-05-22T12:56:13.297Z,26.3
2017-05-22T12:57:35.475Z,26.12
2017-05-22T12:58:57.668Z,26.12
2017-05-22T13:00:19.517Z,25.99
2017-05-22T13:01:42.043Z,25.9
2017-05-22T13:03:04.209Z,25.83
2017-05-22T13:04:26.100Z,25.6
2017-05-22T13:05:48.599Z,25.43
2017-05-22T13:07:11.068Z,25.18
2017-05-22T13:08:33.563Z,25.14
2017-05-22T13:09:55.198Z,25.25
2017-05-22T13:11:17.366Z,25.57
2017-05-22T13:12:39.898Z,25.79
2017-05-22T13:14:02.058Z,26.05
2017-05-22T13:15:24.539Z,26.02
2017-05-22T13:16:46.745Z,26.02
2017-05-22T13:18:09.358Z,25.69
2017-05-22T13:19:31.548Z,25.27
2017-05-22T13:20:53.817Z,25.05
2017-05-22T13:22:16.425Z,24.84
2017-05-22T13:23:38.876Z,24.95
2017-05-22T13:25:01.137Z,24.99
2017-05-22T13:26:23.442Z,25.13
2017-05-22T13:27:45.327Z,25.18
2017-05-22T13:29:07.668Z,25.21
2017-05-22T13:30:29.529Z,25.28
2017-05-22T13:31:51.697Z,25.36
2017-05-22T13:33:13.289Z,25.5
2017-05-22T13:34:35.607Z,25.79
2017-05-22T13:35:57.199Z,25.97
2017-05-22T13:37:18.933Z,25.99
2017-05-22T13:38:41.147Z,26.13
2017-05-22T13:40:03.887Z,26.15
2017-05-22T13:41:25.437Z,26.05
2017-05-22T13:42:47.625Z,25.92
2017-05-22T13:44:09.886Z,25.82
2017-05-22T13:45:32.729Z,25.58
2017-05-22T13:46:54.959Z,25.4
2017-05-22T13:48:17.437Z,25.09
2017-05-22T13:49:39.918Z,24.99
2017-05-22T13:51:02.019Z,24.95
2017-05-22T13:52:23.572Z,25.05
2017-05-22T13:53:45.768Z,25.13
2017-05-22T13:55:07.994Z,25.24
2017-05-22T13:56:30.518Z,25.39
2017-05-22T13:57:52.689Z,25.52
2017-05-22T13:59:14.886Z,25.38
2017-05-22T14:00:37.446Z,25.36
2017-05-22T14:02:00.247Z,25.35
2017-05-22T14:03:22.493Z,25.36
2017-05-22T14:04:44.354Z,24.88
2017-05-22T14:06:05.907Z,24.88
2017-05-22T14:07:27.388Z,25.2
2017-05-22T14:08:49.956Z,25.47
2017-05-22T14:10:11.802Z,25.6
2017-05-22T14:11:34.407Z,25.61
2017-05-22T14:12:56.898Z,25.21
2017-05-22T14:14:19.070Z,25.47
2017-05-22T14:15:40.599Z,25.62
2017-05-22T14:17:02.570Z,25.73
2017-05-22T14:18:24.449Z,25.7
2017-05-22T14:19:46.010Z,25.5
2017-05-22T14:21:07.860Z,25.43
2017-05-22T14:22:29.728Z,25.27
2017-05-22T14:23:52.246Z,25.18
2017-05-22T14:25:14.126Z,24.95
2017-05-22T14:26:36.593Z,24.83
2017-05-22T14:27:58.867Z,24.91
2017-05-22T14:29:21.409Z,25.2
2017-05-22T14:30:42.937Z,25.35
2017-05-22T14:32:05.096Z,25.54
2017-05-22T14:33:27.289Z,25.67
2017-05-22T14:34:49.810Z,25.72
2017-05-22T14:36:11.669Z,25.55
2017-05-22T14:37:33.961Z,25.67
2017-05-22T14:38:56.147Z,25.97
2017-05-22T14:40:17.979Z,26.18
2017-05-22T14:41:40.197Z,26.23
2017-05-22T14:43:02.072Z,26.44
2017-05-22T14:44:23.947Z,26.45
2017-05-22T14:45:46.517Z,26.12
2017-05-22T14:47:08.063Z,26.02
2017-05-22T14:48:30.239Z,25.99
2017-05-22T14:49:52.724Z,26.06
2017-05-22T14:51:15.200Z,25.98
2017-05-22T14:52:37.668Z,25.95
2017-05-22T14:53:59.231Z,25.87
2017-05-22T14:55:21.857Z,25.7
2017-05-22T14:56:44.658Z,25.6
2017-05-22T14:58:06.513Z,25.55
2017-05-22T14:59:28.049Z,25.65
2017-05-22T15:00:50.209Z,25.76
2017-05-22T15:02:13.006Z,25.76
2017-05-22T15:03:35.159Z,25.73
2017-05-22T15:04:57.756Z,25.67
2017-05-22T15:06:20.248Z,25.58
2017-05-22T15:07:42.708Z,25.58
2017-05-22T15:09:04.263Z,25.5
2017-05-22T15:10:26.558Z,25.43
2017-05-22T15:11:48.086Z,25.42
2017-05-22T15:13:10.597Z,25.5
2017-05-22T15:14:31.769Z,25.51
2017-05-22T15:15:54.268Z,25.6
2017-05-22T15:17:16.129Z,25.7
2017-05-22T15:18:38.620Z,25.85
2017-05-22T15:20:01.765Z,26.05
2017-05-22T15:21:23.928Z,26.23
2017-05-22T15:22:45.777Z,26.45
2017-05-22T15:24:08.358Z,26.54
2017-05-22T15:25:30.210Z,26.66
2017-05-22T15:26:52.376Z,26.75
2017-05-22T15:28:13.929Z,26.76
2017-05-22T15:29:36.876Z,26.89
2017-05-22T15:30:58.733Z,26.89
2017-05-22T15:32:20.579Z,26.87
2017-05-22T15:33:42.841Z,26.87
2017-05-22T15:35:05.588Z,26.75
2017-05-22T15:36:28.095Z,26.88
2017-05-22T15:37:50.589Z,26.72
2017-05-22T15:39:13.078Z,26.65
2017-05-22T15:40:35.619Z,26.69
2017-05-22T15:41:57.929Z,26.44
2017-05-22T15:43:19.851Z,26.35
2017-05-22T15:44:42.368Z,26.17
2017-05-22T15:46:04.535Z,25.98
2017-05-22T15:47:27.021Z,26.02
2017-05-22T15:48:49.603Z,25.99
2017-05-22T15:50:11.452Z,25.98
2017-05-22T15:51:33.671Z,25.98
2017-05-22T15:52:55.569Z,25.92
2017-05-22T15:54:17.757Z,25.73
2017-05-22T15:55:39.979Z,25.55
2017-05-22T15:57:02.384Z,25.55
2017-05-22T15:58:24.569Z,25.21
2017-05-22T15:59:46.101Z,25.05
2017-05-22T16:01:08.649Z,24.98
2017-05-22T16:02:30.798Z,24.99
2017-05-22T16:03:53.071Z,24.95
2017-05-22T16:05:15.146Z,24.87
2017-05-22T16:06:37.333Z,24.83
2017-05-22T16:08:00.300Z,24.81
2017-05-22T16:09:22.154Z,24.61
2017-05-22T16:10:44.668Z,24.55
2017-05-22T16:12:06.557Z,24.34
2017-05-22T16:13:29.169Z,24.28
2017-05-22T16:14:51.128Z,24.22
2017-05-22T16:16:13.352Z,24.18
2017-05-22T16:17:35.219Z,24.06
2017-05-22T16:18:57.658Z,24.05
2017-05-22T16:20:19.944Z,23.87
2017-05-22T16:21:42.162Z,23.8
2017-05-22T16:23:04.709Z,23.79
2017-05-22T16:24:27.509Z,23.76
2017-05-22T16:25:50.012Z,23.83
2017-05-22T16:27:12.201Z,23.88
2017-05-22T16:28:34.753Z,23.83
2017-05-22T16:29:57.585Z,23.69
2017-05-22T16:31:20.180Z,23.53
2017-05-22T16:32:42.772Z,23.46
2017-05-22T16:34:04.932Z,23.31
2017-05-22T16:35:27.541Z,23.33
2017-05-22T16:36:49.488Z,23.31
2017-05-22T16:38:12.026Z,23.25
2017-05-22T16:39:34.307Z,23.38
2017-05-22T16:40:57.363Z,23.4
2017-05-22T16:42:19.222Z,23.39
2017-05-22T16:43:41.722Z,23.4
2017-05-22T16:45:04.318Z,23.53
2017-05-22T16:46:27.842Z,23.5
2017-05-22T16:47:50.033Z,23.53
2017-05-22T16:49:12.281Z,23.57
2017-05-22T16:50:34.776Z,23.6
2017-05-22T16:51:57.861Z,23.48
2017-05-22T16:53:19.833Z,23.58
2017-05-22T16:54:42.469Z,23.48
2017-05-22T16:56:04.789Z,23.58
2017-05-22T16:57:27.090Z,23.57
2017-05-22T16:58:49.671Z,23.53
2017-05-22T17:00:11.300Z,23.5
2017-05-22T17:01:33.872Z,23.36
2017-05-22T17:02:55.983Z,23.31
2017-05-22T17:04:17.978Z,23.28
2017-05-22T17:05:39.858Z,23.22
2017-05-22T17:07:01.540Z,23.1
2017-05-22T17:08:23.535Z,22.92
2017-05-22T17:09:45.388Z,22.9
2017-05-22T17:11:07.260Z,22.79
2017-05-22T17:12:29.481Z,22.68
2017-05-22T17:13:52.059Z,22.7
2017-05-22T17:15:14.209Z,22.58
2017-05-22T17:16:36.708Z,22.46
2017-05-22T17:17:58.593Z,22.45
2017-05-22T17:19:20.791Z,22.3
2017-05-22T17:20:43.335Z,22.28
2017-05-22T17:22:05.286Z,22.18
2017-05-22T17:23:27.790Z,22.24
2017-05-22T17:24:50.320Z,22.31
2017-05-22T17:26:12.855Z,22.22
2017-05-22T17:27:35.090Z,22.31
2017-05-22T17:28:57.589Z,22.25
2017-05-22T17:30:20.189Z,22.28
2017-05-22T17:31:42.448Z,22.22
2017-05-22T17:33:04.935Z,22.24
2017-05-22T17:34:27.262Z,22.31
2017-05-22T17:35:49.769Z,22.15
2017-05-22T17:37:12.331Z,22.2
2017-05-22T17:38:35.025Z,22.18
2017-05-22T17:39:56.879Z,22.14
2017-05-22T17:41:19.162Z,22.18
2017-05-22T17:42:41.661Z,22.09
2017-05-22T17:44:03.839Z,22.06
2017-05-22T17:45:25.700Z,21.99
2017-05-22T17:46:48.508Z,22.02
2017-05-22T17:48:10.779Z,21.94
2017-05-22T17:49:33.290Z,21.98
2017-05-22T17:50:55.872Z,21.9